createdAt,value
2022-08-17T00:00:43.262Z,9.37
2022-08-17T00:03:17.160Z,9.38
2022-08-17T00:05:47.980Z,9.39
2022-08-17T00:08:56.400Z,9.38
2022-08-17T00:11:38.873Z,9.40
2022-08-17T00:14:15.220Z,9.43
2022-08-17T00:16:56.074Z,9.39
2022-08-17T00:19:27.191Z,9.47
2022-08-17T00:22:31.423Z,9.49
2022-08-17T00:24:48.119Z,9.49
2022-08-17T00:27:16.181Z,9.52
2022-08-17T00:29:46.185Z,9.55
2022-08-17T00:33:12.632Z,9.59
2022-08-17T00:35:09.748Z,9.65
2022-08-17T00:37:37.869Z,9.74
2022-08-17T00:40:08.462Z,9.86
2022-08-17T00:42:36.808Z,9.91
2022-08-17T00:45:07.627Z,9.95
2022-08-17T00:47:35.631Z,10.01
2022-08-17T00:50:05.798Z,10.02
2022-08-17T00:52:40.935Z,10.07
2022-08-17T00:55:10.061Z,10.10
2022-08-17T00:57:44.360Z,10.17
2022-08-17T01:00:28.896Z,10.18
2022-08-17T01:03:09.799Z,10.20
2022-08-17T01:05:42.317Z,10.24
2022-08-17T01:08:15.022Z,10.22
2022-08-17T01:13:44.882Z,10.46
2022-08-17T01:16:25.581Z,10.48
2022-08-17T01:18:59.409Z,10.33
2022-08-17T01:21:58.038Z,10.58
2022-08-17T01:24:28.403Z,10.68
2022-08-17T01:26:57.654Z,10.88
2022-08-17T01:29:26.728Z,10.96
2022-08-17T01:31:58.880Z,11.17
2022-08-17T01:34:42.604Z,11.36
2022-08-17T01:37:15.540Z,11.61
2022-08-17T01:39:55.543Z,11.67
2022-08-17T01:42:34.559Z,11.66
2022-08-17T01:45:10.693Z,11.62
2022-08-17T01:47:40.489Z,11.56
2022-08-17T01:50:13.080Z,11.52
2022-08-17T01:52:42.080Z,11.51
2022-08-17T01:55:11.215Z,11.51
2022-08-17T01:57:39.301Z,11.51
2022-08-17T02:00:11.542Z,11.33
2022-08-17T02:02:40.322Z,11.59
2022-08-17T02:05:09.395Z,11.65
2022-08-17T02:07:59.356Z,11.69
2022-08-17T02:10:25.597Z,11.73
2022-08-17T02:13:05.309Z,11.92
2022-08-17T02:15:35.470Z,12.16
2022-08-17T02:18:06.036Z,12.55
2022-08-17T02:20:41.894Z,12.82
2022-08-17T02:23:14.577Z,12.93
2022-08-17T02:25:48.515Z,12.99
2022-08-17T02:28:20.154Z,12.98
2022-08-17T02:31:00.282Z,13.12
2022-08-17T02:33:42.816Z,13.19
2022-08-17T02:36:14.570Z,13.33
2022-08-17T02:38:44.471Z,13.60
2022-08-17T02:41:13.565Z,13.75
2022-08-17T02:43:41.625Z,13.89
2022-08-17T02:46:25.871Z,14.05
2022-08-17T02:48:53.967Z,14.24
2022-08-17T02:51:22.160Z,14.34
2022-08-17T02:53:50.530Z,14.53
2022-08-17T02:56:18.590Z,14.72
2022-08-17T02:58:47.000Z,14.89
2022-08-17T03:01:15.460Z,15.04
2022-08-17T03:03:43.749Z,15.12
2022-08-17T03:06:11.902Z,15.27
2022-08-17T03:08:41.401Z,15.22
2022-08-17T03:11:09.495Z,15.07
2022-08-17T03:13:38.209Z,15.00
2022-08-17T03:16:07.504Z,14.95
2022-08-17T03:18:35.636Z,14.83
2022-08-17T03:21:04.960Z,14.76
2022-08-17T03:23:33.304Z,14.65
2022-08-17T03:26:01.790Z,14.55
2022-08-17T03:28:30.352Z,14.45
2022-08-17T03:31:00.087Z,14.38
2022-08-17T03:33:28.084Z,14.32
2022-08-17T03:35:56.138Z,14.26
2022-08-17T03:38:26.554Z,14.16
2022-08-17T03:40:58.585Z,14.11
2022-08-17T03:43:30.682Z,14.07
2022-08-17T03:46:28.386Z,14.06
2022-08-17T03:49:28.190Z,14.09
2022-08-17T03:52:16.001Z,14.09
2022-08-17T03:55:05.574Z,14.10
2022-08-17T03:57:33.704Z,14.01
2022-08-17T04:00:01.831Z,13.99
2022-08-17T04:02:41.435Z,13.94
2022-08-17T04:05:10.090Z,13.86
2022-08-17T04:07:38.169Z,13.82
2022-08-17T04:10:07.700Z,13.84
2022-08-17T04:12:50.216Z,14.05
2022-08-17T04:15:21.600Z,14.33
2022-08-17T04:17:49.809Z,14.70
2022-08-17T04:20:20.694Z,14.99
2022-08-17T04:23:10.181Z,15.06
2022-08-17T04:25:42.641Z,15.07
2022-08-17T04:28:16.310Z,15.12
2022-08-17T04:30:47.846Z,15.02
2022-08-17T04:33:19.766Z,14.90
2022-08-17T04:35:51.133Z,14.86
2022-08-17T04:38:24.991Z,14.91
2022-08-17T04:41:12.368Z,14.92
2022-08-17T04:43:43.371Z,15.25
2022-08-17T04:46:17.925Z,15.40
2022-08-17T04:48:49.909Z,15.37
2022-08-17T04:51:32.167Z,15.26
2022-08-17T04:54:05.061Z,15.17
2022-08-17T04:56:33.939Z,15.16
2022-08-17T04:59:18.951Z,15.32
2022-08-17T05:01:49.459Z,15.68
2022-08-17T05:04:34.105Z,16.06
2022-08-17T05:07:05.467Z,16.40
2022-08-17T05:09:33.623Z,16.24
2022-08-17T05:12:03.106Z,16.05
2022-08-17T05:14:33.561Z,15.81
2022-08-17T05:17:04.626Z,15.63
2022-08-17T05:19:37.912Z,15.50
2022-08-17T05:22:07.204Z,15.54
2022-08-17T05:24:39.043Z,15.65
2022-08-17T05:27:16.764Z,15.80
2022-08-17T05:29:47.342Z,16.02
2022-08-17T05:32:39.054Z,16.12
2022-08-17T05:35:06.155Z,16.18
2022-08-17T05:37:34.152Z,16.11
2022-08-17T05:40:02.243Z,16.05
2022-08-17T05:42:33.132Z,15.96
2022-08-17T05:45:01.224Z,15.85
2022-08-17T05:47:31.162Z,15.76
2022-08-17T05:50:01.117Z,15.68
2022-08-17T05:52:48.655Z,15.56
2022-08-17T05:55:54.822Z,15.41
2022-08-17T05:58:56.699Z,15.19
2022-08-17T06:01:34.247Z,15.10
2022-08-17T06:04:40.342Z,15.08
2022-08-17T06:07:11.453Z,15.32
2022-08-17T06:09:55.863Z,15.47
2022-08-17T06:12:55.646Z,15.49
2022-08-17T06:15:48.081Z,15.85
2022-08-17T06:18:20.867Z,16.03
2022-08-17T06:20:57.517Z,16.06
2022-08-17T06:23:47.256Z,16.01
2022-08-17T06:26:38.432Z,15.95
2022-08-17T06:29:41.248Z,15.89
2022-08-17T06:32:12.806Z,15.82
2022-08-17T06:34:44.450Z,15.75
2022-08-17T06:37:31.880Z,15.14
2022-08-17T06:40:36.712Z,15.60
2022-08-17T06:43:33.591Z,15.52
2022-08-17T06:46:24.643Z,15.48
2022-08-17T06:49:13.893Z,15.47
2022-08-17T06:51:53.184Z,15.48
2022-08-17T06:54:37.775Z,15.63
2022-08-17T06:57:25.725Z,15.69
2022-08-17T06:59:59.822Z,15.67
2022-08-17T07:03:02.109Z,15.64
2022-08-17T07:05:42.574Z,15.70
2022-08-17T07:08:35.378Z,15.86
2022-08-17T07:11:09.186Z,15.93
2022-08-17T07:13:52.194Z,15.81
2022-08-17T07:16:33.860Z,15.68
2022-08-17T07:19:04.917Z,15.55
2022-08-17T07:21:55.685Z,15.42
2022-08-17T07:24:48.558Z,15.35
2022-08-17T07:27:26.210Z,15.44
2022-08-17T07:30:22.865Z,15.80
2022-08-17T07:33:14.266Z,16.23
2022-08-17T07:35:44.657Z,16.40
2022-08-17T07:38:30.952Z,16.35
2022-08-17T07:41:21.062Z,16.19
2022-08-17T07:43:53.896Z,15.99
2022-08-17T07:46:43.154Z,15.70
2022-08-17T07:49:12.757Z,15.42
2022-08-17T07:51:56.548Z,15.15
2022-08-17T07:54:30.995Z,14.96
2022-08-17T07:57:04.607Z,14.78
2022-08-17T07:59:35.656Z,14.65
2022-08-17T08:02:21.647Z,14.53
2022-08-17T08:05:10.099Z,14.51
2022-08-17T08:07:56.159Z,14.55
2022-08-17T08:10:45.081Z,14.56
2022-08-17T08:13:22.782Z,14.55
2022-08-17T08:15:55.915Z,14.49
2022-08-17T08:18:47.610Z,14.49
2022-08-17T08:21:32.346Z,14.51
2022-08-17T08:24:00.964Z,14.49
2022-08-17T08:26:47.093Z,14.47
2022-08-17T08:29:29.974Z,14.49
2022-08-17T08:32:38.390Z,14.66
2022-08-17T08:35:19.356Z,14.83
2022-08-17T08:38:15.090Z,14.93
2022-08-17T08:40:57.081Z,14.91
2022-08-17T08:43:37.862Z,14.87
2022-08-17T08:46:14.580Z,14.76
2022-08-17T08:49:12.697Z,14.60
2022-08-17T08:51:57.234Z,14.48
2022-08-17T08:54:40.002Z,14.38
2022-08-17T08:57:33.810Z,14.38
2022-08-17T09:00:17.206Z,14.36
2022-08-17T09:03:36.725Z,14.34
2022-08-17T09:06:37.329Z,14.33
2022-08-17T09:09:38.855Z,14.29
2022-08-17T09:12:22.296Z,14.27
2022-08-17T09:15:03.096Z,14.23
2022-08-17T09:17:47.788Z,14.18
2022-08-17T09:20:27.428Z,14.19
2022-08-17T09:23:07.887Z,14.19
2022-08-17T09:26:10.949Z,14.18
2022-08-17T09:28:43.565Z,14.16
2022-08-17T09:31:18.532Z,14.12
2022-08-17T09:33:49.080Z,14.07
2022-08-17T09:36:30.691Z,14.03
2022-08-17T09:39:04.381Z,14.00
2022-08-17T09:42:03.508Z,13.93
2022-08-17T09:44:40.491Z,13.89
2022-08-17T09:47:13.910Z,13.84
2022-08-17T09:49:51.914Z,13.80
2022-08-17T09:52:26.173Z,13.79
2022-08-17T09:54:56.884Z,13.74
2022-08-17T09:57:30.733Z,13.67
2022-08-17T10:00:17.541Z,13.60
2022-08-17T10:03:20.410Z,13.53
2022-08-17T10:06:03.053Z,13.51
2022-08-17T10:08:55.010Z,13.48
2022-08-17T10:11:52.167Z,13.46
2022-08-17T10:14:37.970Z,13.48
2022-08-17T10:17:30.447Z,13.49
2022-08-17T10:20:30.751Z,13.53
2022-08-17T10:23:36.879Z,13.54
2022-08-17T10:26:27.789Z,13.64
2022-08-17T10:29:29.011Z,13.67
2022-08-17T10:32:04.784Z,13.67
2022-08-17T10:35:09.017Z,13.63
2022-08-17T10:37:54.427Z,13.69
2022-08-17T10:40:51.488Z,13.81
2022-08-17T10:43:29.942Z,13.86
2022-08-17T10:46:29.928Z,13.88
2022-08-17T10:49:17.810Z,13.90
2022-08-17T10:51:50.935Z,13.92
2022-08-17T10:54:38.890Z,13.91
2022-08-17T10:57:36.872Z,13.92
2022-08-17T11:00:16.566Z,13.94
2022-08-17T11:02:57.665Z,13.96
2022-08-17T11:05:49.346Z,13.99
2022-08-17T11:08:26.283Z,14.01
2022-08-17T11:11:16.398Z,14.01
2022-08-17T11:13:53.394Z,14.07
2022-08-17T11:16:27.091Z,14.07
2022-08-17T11:19:09.412Z,14.08
2022-08-17T11:22:00.681Z,14.08
2022-08-17T11:24:52.362Z,14.06
2022-08-17T11:27:28.032Z,14.04
2022-08-17T11:30:03.172Z,14.11
2022-08-17T11:32:47.577Z,14.12
2022-08-17T11:35:22.983Z,14.12
2022-08-17T11:38:00.210Z,14.11
2022-08-17T11:41:02.234Z,14.08
2022-08-17T11:43:48.428Z,14.12
2022-08-17T11:46:22.629Z,14.11
2022-08-17T11:49:12.061Z,14.13
2022-08-17T11:52:13.282Z,14.09
2022-08-17T11:54:45.841Z,14.06
2022-08-17T11:57:33.020Z,14.01
2022-08-17T12:00:11.538Z,14.01
2022-08-17T12:02:48.532Z,13.93
2022-08-17T12:05:23.872Z,13.98
2022-08-17T12:08:21.973Z,13.98
2022-08-17T12:10:54.111Z,13.95
2022-08-17T12:13:30.479Z,13.94
2022-08-17T12:16:06.182Z,13.95
2022-08-17T12:18:38.112Z,13.93
2022-08-17T12:21:27.042Z,13.90
2022-08-17T12:24:14.311Z,13.86
2022-08-17T12:26:44.899Z,13.91
2022-08-17T12:29:39.073Z,13.88
2022-08-17T12:32:34.393Z,13.88
2022-08-17T12:35:30.257Z,13.85
2022-08-17T12:37:59.125Z,13.83
2022-08-17T12:40:32.365Z,13.81
2022-08-17T12:43:04.557Z,13.78
2022-08-17T12:45:37.909Z,13.74
2022-08-17T12:48:24.644Z,13.71
2022-08-17T12:50:53.338Z,13.68
2022-08-17T12:53:25.701Z,13.48
2022-08-17T12:55:55.826Z,13.56
2022-08-17T12:58:29.581Z,13.61
2022-08-17T13:01:09.478Z,13.54
2022-08-17T13:03:39.779Z,13.51
2022-08-17T13:06:10.884Z,13.50
2022-08-17T13:08:44.769Z,13.47
2022-08-17T13:11:16.760Z,13.47
2022-08-17T13:13:47.728Z,13.45
2022-08-17T13:16:18.883Z,13.42
2022-08-17T13:19:09.040Z,13.41
2022-08-17T13:21:39.443Z,13.40
2022-08-17T13:30:12.813Z,13.34
2022-08-17T13:32:46.261Z,13.31
2022-08-17T13:35:39.583Z,13.25
2022-08-17T13:38:13.929Z,13.22
2022-08-17T13:40:55.546Z,13.19
2022-08-17T13:43:47.232Z,13.15
2022-08-17T13:46:27.179Z,13.14
2022-08-17T13:49:03.327Z,13.11
2022-08-17T13:51:36.303Z,13.07
2022-08-17T13:54:07.679Z,13.06
2022-08-17T13:56:41.402Z,13.05
2022-08-17T13:59:53.807Z,13.04
2022-08-17T14:02:17.942Z,13.03
2022-08-17T14:04:47.961Z,13.00
2022-08-17T14:07:16.586Z,12.99
2022-08-17T14:10:16.648Z,12.93
2022-08-17T14:12:46.174Z,12.89
2022-08-17T14:18:02.105Z,12.80
2022-08-17T14:20:30.183Z,12.77
2022-08-17T14:25:43.884Z,12.68
2022-08-17T14:28:11.930Z,12.67
2022-08-17T14:30:41.890Z,12.63
2022-08-17T14:33:10.252Z,12.59
2022-08-17T14:35:38.336Z,12.53
2022-08-17T14:38:06.603Z,12.42
2022-08-17T14:40:36.009Z,12.44
2022-08-17T14:43:22.531Z,12.42
2022-08-17T14:45:50.706Z,12.41
2022-08-17T14:48:18.673Z,12.40
2022-08-17T14:50:46.818Z,12.38
2022-08-17T14:53:17.244Z,12.29
2022-08-17T14:55:47.152Z,12.34
2022-08-17T14:58:17.049Z,12.32
2022-08-17T15:00:45.214Z,12.35
2022-08-17T15:06:00.152Z,12.35
2022-08-17T15:08:29.189Z,12.11
2022-08-17T15:10:59.629Z,12.31
2022-08-17T15:13:30.205Z,12.27
2022-08-17T15:16:00.555Z,12.27
2022-08-17T15:18:29.101Z,12.24
2022-08-17T15:21:01.782Z,12.23
2022-08-17T15:23:29.887Z,12.19
2022-08-17T15:25:57.935Z,12.21
2022-08-17T15:28:26.821Z,12.19
2022-08-17T15:30:55.102Z,12.18
2022-08-17T15:33:32.225Z,12.17
2022-08-17T15:36:04.237Z,12.16
2022-08-17T15:38:34.871Z,12.10
2022-08-17T15:41:04.601Z,12.12
2022-08-17T15:43:33.476Z,12.09
2022-08-17T15:46:32.980Z,11.95
2022-08-17T15:49:03.516Z,12.05
2022-08-17T15:51:34.361Z,12.02
2022-08-17T15:54:19.120Z,11.99
2022-08-17T15:56:51.139Z,11.97
2022-08-17T15:59:20.105Z,11.97
2022-08-17T16:03:01.640Z,11.89
2022-08-17T16:04:39.172Z,11.94
2022-08-17T16:07:12.209Z,11.85
2022-08-17T16:09:40.233Z,11.91
2022-08-17T16:12:20.284Z,11.91
2022-08-17T16:14:50.838Z,11.93
2022-08-17T16:17:38.918Z,11.94
2022-08-17T16:20:07.544Z,11.92
2022-08-17T16:22:41.599Z,11.90
2022-08-17T16:25:14.749Z,11.87
2022-08-17T16:27:43.444Z,11.87
2022-08-17T16:30:17.082Z,11.83
2022-08-17T16:32:48.123Z,11.83
2022-08-17T16:35:18.963Z,11.83
2022-08-17T16:37:47.561Z,11.85
2022-08-17T16:40:17.718Z,11.85
2022-08-17T16:42:49.109Z,11.85
2022-08-17T16:45:20.244Z,11.85
2022-08-17T16:47:50.543Z,11.85
2022-08-17T16:50:21.624Z,11.83
2022-08-17T16:52:51.693Z,11.83
2022-08-17T16:55:22.661Z,11.82
2022-08-17T16:57:50.959Z,11.82
2022-08-17T17:03:21.035Z,11.79
2022-08-17T17:06:11.304Z,11.77
2022-08-17T17:08:49.543Z,11.74
2022-08-17T17:11:45.417Z,11.70
2022-08-17T17:14:29.104Z,11.60
2022-08-17T17:17:11.120Z,11.36
2022-08-17T17:19:46.272Z,11.60
2022-08-17T17:22:26.065Z,11.56
2022-08-17T17:25:16.163Z,11.52
2022-08-17T17:27:51.430Z,11.50
2022-08-17T17:30:45.415Z,11.47
2022-08-17T17:33:18.850Z,11.45
2022-08-17T17:36:00.333Z,11.40
2022-08-17T17:38:50.114Z,11.37
2022-08-17T17:41:44.605Z,11.37
2022-08-17T17:44:19.811Z,11.33
2022-08-17T17:46:54.685Z,11.35
2022-08-17T17:49:24.457Z,11.34
2022-08-17T17:52:24.915Z,11.34
2022-08-17T17:55:01.955Z,11.34
2022-08-17T17:57:52.353Z,11.31
2022-08-17T18:00:27.445Z,11.32
2022-08-17T18:03:10.341Z,11.32
2022-08-17T18:05:56.728Z,11.32
2022-08-17T18:08:43.979Z,11.31
2022-08-17T18:11:34.915Z,11.31
2022-08-17T18:14:19.211Z,11.29
2022-08-17T18:16:54.050Z,11.27
2022-08-17T18:19:26.172Z,11.25
2022-08-17T18:22:16.940Z,11.24
2022-08-17T18:24:47.925Z,11.21
2022-08-17T18:27:35.200Z,11.23
2022-08-17T18:30:15.182Z,11.21
2022-08-17T18:32:47.183Z,11.24
2022-08-17T18:35:15.148Z,11.24
2022-08-17T18:37:46.225Z,11.23
2022-08-17T18:40:22.821Z,11.21
2022-08-17T18:43:11.504Z,11.19
2022-08-17T18:45:51.862Z,11.18
2022-08-17T18:48:25.956Z,11.18
2022-08-17T18:50:57.257Z,11.18
2022-08-17T18:53:41.627Z,11.17
2022-08-17T18:56:31.992Z,11.17
2022-08-17T18:59:17.483Z,11.17
2022-08-17T19:02:38.666Z,11.14
2022-08-17T19:05:14.734Z,11.14
2022-08-17T19:07:48.813Z,11.12
2022-08-17T19:10:30.402Z,10.85
2022-08-17T19:13:13.853Z,11.06
2022-08-17T19:16:12.049Z,11.03
2022-08-17T19:19:00.190Z,10.96
2022-08-17T19:21:40.014Z,10.99
2022-08-17T19:24:23.433Z,10.98
2022-08-17T19:27:15.137Z,10.94
2022-08-17T19:29:51.478Z,10.92
2022-08-17T19:32:30.816Z,10.91
2022-08-17T19:34:59.122Z,10.92
2022-08-17T19:37:59.034Z,10.89
2022-08-17T19:40:51.769Z,10.72
2022-08-17T19:43:28.663Z,10.86
2022-08-17T19:46:08.313Z,10.85
2022-08-17T19:48:37.634Z,10.94
2022-08-17T19:51:18.532Z,10.93
2022-08-17T19:54:06.660Z,10.92
2022-08-17T19:57:20.462Z,10.94
2022-08-17T20:00:24.637Z,10.95
2022-08-17T20:03:16.979Z,10.93
2022-08-17T20:06:12.041Z,10.91
2022-08-17T20:09:05.310Z,10.91
2022-08-17T20:11:46.286Z,10.86
2022-08-17T20:14:18.358Z,10.84
2022-08-17T20:16:46.390Z,10.80
2022-08-17T20:19:29.988Z,10.80
2022-08-17T20:22:30.550Z,10.75
2022-08-17T20:25:31.745Z,10.79
2022-08-17T20:28:15.969Z,10.70
2022-08-17T20:30:45.472Z,10.70
2022-08-17T20:33:30.917Z,10.66
2022-08-17T20:36:19.533Z,10.61
2022-08-17T20:38:54.828Z,10.57
2022-08-17T20:41:25.931Z,10.54
2022-08-17T20:44:00.125Z,10.55
2022-08-17T20:47:02.228Z,10.54
2022-08-17T20:49:51.682Z,10.56
2022-08-17T20:52:42.114Z,10.54
2022-08-17T20:55:31.301Z,10.45
2022-08-17T20:58:23.662Z,10.47
2022-08-17T21:00:58.285Z,10.46
2022-08-17T21:03:47.555Z,10.43
2022-08-17T21:06:22.478Z,10.43
2022-08-17T21:08:59.443Z,10.36
2022-08-17T21:12:02.509Z,10.41
2022-08-17T21:14:29.420Z,10.43
2022-08-17T21:17:07.522Z,10.46
2022-08-17T21:20:00.627Z,10.43
2022-08-17T21:22:36.514Z,10.46
2022-08-17T21:25:33.286Z,10.43
2022-08-17T21:28:14.116Z,10.44
2022-08-17T21:30:44.491Z,10.44
2022-08-17T21:33:22.805Z,10.40
2022-08-17T21:36:17.437Z,10.39
2022-08-17T21:39:09.813Z,10.40
2022-08-17T21:41:58.314Z,10.41
2022-08-17T21:44:37.805Z,10.43
2022-08-17T21:47:25.266Z,10.42
2022-08-17T21:49:54.932Z,10.44
2022-08-17T21:52:25.090Z,10.42
2022-08-17T21:54:57.174Z,10.35
2022-08-17T21:57:32.611Z,10.30
2022-08-17T22:00:17.149Z,10.30
2022-08-17T22:02:59.568Z,10.26
2022-08-17T22:05:38.443Z,10.29
2022-08-17T22:08:16.677Z,10.27
2022-08-17T22:10:49.616Z,10.26
2022-08-17T22:13:22.622Z,10.24
2022-08-17T22:16:29.049Z,10.25
2022-08-17T22:19:00.710Z,10.26
2022-08-17T22:21:28.770Z,10.26
2022-08-17T22:24:22.657Z,10.11
2022-08-17T22:27:02.267Z,10.24
2022-08-17T22:29:57.540Z,10.21
2022-08-17T22:32:43.697Z,10.21
2022-08-17T22:35:26.414Z,10.22
2022-08-17T22:37:54.403Z,10.23
2022-08-17T22:40:36.696Z,10.21
2022-08-17T22:43:04.831Z,10.23
2022-08-17T22:45:34.262Z,10.25
2022-08-17T22:48:04.048Z,10.26
2022-08-17T22:50:33.821Z,10.26
2022-08-17T22:53:37.806Z,10.28
2022-08-17T22:56:26.060Z,10.25
2022-08-17T22:59:17.109Z,10.27
2022-08-17T23:02:05.993Z,10.27
2022-08-17T23:04:39.324Z,10.26
2022-08-17T23:07:07.547Z,10.26
2022-08-17T23:09:36.479Z,10.26
2022-08-17T23:12:09.652Z,10.28
2022-08-17T23:14:41.537Z,10.28
2022-08-17T23:17:09.613Z,10.30
2022-08-17T23:19:38.587Z,10.28
2022-08-17T23:22:09.867Z,10.30
2022-08-17T23:24:45.019Z,10.31
2022-08-17T23:27:13.589Z,10.35
2022-08-17T23:29:42.888Z,10.41
2022-08-17T23:32:15.712Z,10.48
2022-08-17T23:34:45.617Z,10.57
2022-08-17T23:37:13.308Z,10.62
2022-08-17T23:39:43.188Z,10.64
2022-08-17T23:42:12.131Z,10.63
2022-08-17T23:44:42.293Z,10.58
2022-08-17T23:47:12.783Z,10.57
2022-08-17T23:49:41.975Z,10.56
2022-08-17T23:52:15.038Z,10.54
2022-08-17T23:54:48.222Z,10.53
2022-08-17T23:57:20.438Z,10.55
